createdAt,value
2023-04-19T00:02:44.315Z,11.90
2023-04-19T00:09:45.061Z,11.90
2023-04-19T00:16:46.095Z,11.90
2023-04-19T00:23:46.851Z,11.90
2023-04-19T00:30:47.204Z,11.80
2023-04-19T00:37:47.696Z,11.80
2023-04-19T00:44:48.519Z,11.80
2023-04-19T00:51:50.466Z,11.80
2023-04-19T00:58:51.414Z,11.80
2023-04-19T01:05:51.866Z,11.80
2023-04-19T01:12:52.358Z,11.80
2023-04-19T01:20:03.759Z,11.70
2023-04-19T01:27:04.573Z,11.60
2023-04-19T01:34:05.568Z,11.60
2023-04-19T01:41:06.581Z,11.60
2023-04-19T01:48:07.344Z,11.50
2023-04-19T01:55:08.464Z,11.50
2023-04-19T02:02:09.334Z,11.40
2023-04-19T02:09:09.769Z,11.40
2023-04-19T02:16:11.130Z,11.30
2023-04-19T02:23:12.552Z,11.30
2023-04-19T02:30:13.300Z,11.20
2023-04-19T02:37:13.672Z,11.20
2023-04-19T02:44:14.196Z,11.20
2023-04-19T02:51:17.684Z,11.20
2023-04-19T02:58:18.799Z,11.20
2023-04-19T03:05:31.868Z,11.20
2023-04-19T03:12:32.350Z,11.20
2023-04-19T03:19:32.711Z,11.20
2023-04-19T03:26:33.607Z,11.20
2023-04-19T03:33:35.706Z,11.10
2023-04-19T03:40:38.046Z,11.10
2023-04-19T03:47:39.326Z,11.10
2023-04-19T03:54:40.694Z,11.10
2023-04-19T04:01:48.754Z,11.10
2023-04-19T04:08:49.026Z,11.00
2023-04-19T04:15:49.658Z,11.00
2023-04-19T04:22:50.754Z,11.00
2023-04-19T04:29:54.408Z,11.10
2023-04-19T04:36:56.642Z,11.10
2023-04-19T04:44:11.511Z,11.10
2023-04-19T04:51:13.791Z,11.20
2023-04-19T04:58:18.007Z,11.20
2023-04-19T05:05:34.253Z,11.20
2023-04-19T05:12:34.717Z,11.20
2023-04-19T05:19:35.143Z,11.20
2023-04-19T05:26:39.870Z,11.20
2023-04-19T05:33:41.830Z,11.20
2023-04-19T05:40:43.176Z,11.30
2023-04-19T05:47:43.846Z,11.30
2023-04-19T05:54:50.283Z,11.20
2023-04-19T06:01:50.878Z,11.10
2023-04-19T06:08:54.448Z,11.10
2023-04-19T06:15:55.332Z,11.00
2023-04-19T06:22:55.653Z,11.00
2023-04-19T06:29:56.022Z,11.10
2023-04-19T06:36:56.720Z,11.10
2023-04-19T06:43:57.171Z,11.20
2023-04-19T06:50:57.590Z,11.40
2023-04-19T06:57:58.392Z,11.60
2023-04-19T07:04:58.756Z,11.80
2023-04-19T07:11:59.401Z,11.80
2023-04-19T07:18:59.737Z,11.90
2023-04-19T07:26:00.073Z,12.10
2023-04-19T07:33:00.354Z,12.20
2023-04-19T07:40:00.745Z,12.30
2023-04-19T07:47:01.316Z,12.30
2023-04-19T07:54:01.964Z,12.30
2023-04-19T08:01:03.957Z,12.40
2023-04-19T08:08:04.611Z,12.60
2023-04-19T08:15:25.506Z,12.80
2023-04-19T08:22:28.080Z,12.90
2023-04-19T08:29:28.725Z,13.00
2023-04-19T08:36:39.091Z,13.20
2023-04-19T08:43:45.272Z,13.30
2023-04-19T08:51:04.519Z,13.50
2023-04-19T08:58:12.269Z,13.50
2023-04-19T09:05:20.382Z,13.50
2023-04-19T09:12:20.719Z,13.50
2023-04-19T09:19:24.638Z,13.60
2023-04-19T09:26:29.677Z,13.60
2023-04-19T09:33:34.769Z,13.50
2023-04-19T09:40:35.524Z,13.60
2023-04-19T09:47:36.230Z,13.70
2023-04-19T09:54:37.535Z,13.90
2023-04-19T10:01:47.849Z,14.00
2023-04-19T10:08:50.631Z,14.00
2023-04-19T10:15:55.585Z,14.00
2023-04-19T10:23:02.478Z,14.10
2023-04-19T10:30:08.045Z,14.30
2023-04-19T10:37:11.592Z,14.40
2023-04-19T10:44:12.406Z,14.60
2023-04-19T10:51:19.108Z,14.70
2023-04-19T10:58:19.283Z,14.60
2023-04-19T11:05:20.392Z,14.60
2023-04-19T11:12:21.596Z,14.70
2023-04-19T11:19:22.019Z,14.80
2023-04-19T11:26:23.895Z,15.00
2023-04-19T11:33:25.690Z,14.90
2023-04-19T11:40:26.518Z,15.10
2023-04-19T11:47:27.337Z,15.30
2023-04-19T11:54:28.399Z,15.30
2023-04-19T12:01:29.058Z,15.30
2023-04-19T12:08:34.388Z,15.30
2023-04-19T12:15:42.303Z,15.20
2023-04-19T12:22:43.822Z,15.30
2023-04-19T12:29:44.289Z,15.10
2023-04-19T12:36:44.734Z,15.10
2023-04-19T12:43:45.218Z,15.20
2023-04-19T12:50:45.695Z,15.50
2023-04-19T12:57:45.983Z,15.90
2023-04-19T13:04:46.399Z,16.50
2023-04-19T13:11:46.647Z,16.80
2023-04-19T13:18:47.233Z,17.20
2023-04-19T13:25:47.360Z,17.70
2023-04-19T13:32:47.986Z,18.00
2023-04-19T13:39:48.482Z,18.20
2023-04-19T13:46:49.005Z,18.60
2023-04-19T13:53:49.546Z,18.80
2023-04-19T14:00:50.843Z,18.70
2023-04-19T14:07:52.320Z,18.80
2023-04-19T14:14:52.736Z,18.80
2023-04-19T14:21:53.164Z,19.00
2023-04-19T14:28:53.434Z,19.00
2023-04-19T14:35:53.983Z,19.50
2023-04-19T14:42:54.356Z,20.20
2023-04-19T14:49:54.959Z,20.30
2023-04-19T14:56:55.462Z,20.30
2023-04-19T15:03:56.033Z,19.90
2023-04-19T15:10:56.761Z,20.00
2023-04-19T15:17:57.042Z,20.10
2023-04-19T15:24:57.795Z,20.20
2023-04-19T15:31:58.168Z,20.30
2023-04-19T15:38:59.167Z,20.20
2023-04-19T15:45:59.994Z,20.00
2023-04-19T15:53:00.544Z,20.10
2023-04-19T16:00:00.870Z,19.50
2023-04-19T16:07:01.188Z,19.00
2023-04-19T16:14:01.580Z,18.50
2023-04-19T16:21:05.949Z,18.40
2023-04-19T16:28:06.286Z,18.40
2023-04-19T16:35:06.987Z,18.30
2023-04-19T16:42:07.224Z,18.10
2023-04-19T16:49:07.733Z,17.60
2023-04-19T16:56:08.104Z,17.10
2023-04-19T17:03:11.935Z,16.80
2023-04-19T17:10:12.983Z,16.60
2023-04-19T17:17:13.337Z,16.60
2023-04-19T17:24:13.850Z,16.60
2023-04-19T17:31:14.221Z,16.30
2023-04-19T17:38:14.547Z,16.00
2023-04-19T17:45:14.915Z,15.80
2023-04-19T17:52:15.257Z,15.50
2023-04-19T17:59:16.001Z,15.00
2023-04-19T18:06:16.625Z,14.70
2023-04-19T18:13:17.032Z,14.40
2023-04-19T18:20:18.806Z,14.10
2023-04-19T18:27:18.992Z,13.80
2023-04-19T18:34:19.802Z,13.50
2023-04-19T18:41:19.818Z,13.30
2023-04-19T18:48:20.305Z,13.10
2023-04-19T18:55:20.607Z,12.90
2023-04-19T19:02:21.070Z,12.80
2023-04-19T19:09:22.793Z,12.60
2023-04-19T19:16:25.382Z,12.50
2023-04-19T19:23:35.385Z,12.30
2023-04-19T19:30:39.761Z,12.10
2023-04-19T19:37:40.675Z,11.90
2023-04-19T19:44:41.158Z,11.80
2023-04-19T19:51:57.508Z,11.60
2023-04-19T19:58:59.233Z,11.50
2023-04-19T20:05:59.712Z,11.30
2023-04-19T20:13:01.311Z,11.20
2023-04-19T20:20:02.929Z,11.10
2023-04-19T20:27:03.761Z,10.90
2023-04-19T20:34:04.196Z,10.80
2023-04-19T20:41:04.703Z,10.70
2023-04-19T20:48:05.908Z,10.50
2023-04-19T20:55:07.031Z,10.40
2023-04-19T21:02:08.014Z,10.30
2023-04-19T21:09:08.609Z,10.20
2023-04-19T21:16:09.131Z,10.00
2023-04-19T21:23:09.894Z,9.90
2023-04-19T21:30:11.122Z,9.80
2023-04-19T21:37:11.304Z,9.70
2023-04-19T21:44:11.740Z,9.60
2023-04-19T21:51:13.215Z,9.50
2023-04-19T21:58:13.806Z,9.30
2023-04-19T22:05:14.226Z,9.30
2023-04-19T22:12:14.621Z,9.20
2023-04-19T22:19:16.009Z,9.20
2023-04-19T22:26:16.671Z,9.10
2023-04-19T22:33:17.074Z,9.00
2023-04-19T22:40:17.522Z,8.90
2023-04-19T22:47:17.781Z,8.80
2023-04-19T22:54:18.119Z,8.70
2023-04-19T23:01:18.355Z,8.70
2023-04-19T23:08:19.854Z,8.60
2023-04-19T23:15:20.985Z,8.50
2023-04-19T23:22:21.244Z,8.50
2023-04-19T23:29:21.593Z,8.40
2023-04-19T23:36:21.989Z,8.20
2023-04-19T23:43:22.538Z,8.10
2023-04-19T23:50:23.148Z,8.00
2023-04-19T23:57:23.567Z,8.00
